• Join FlightAware (Why Join?)
  • Login
  • US Flag 
03:34PM EDT


 

Airport Tracker/Info


-or-


 

Live Flight TrackerFlight Track Log ✈ ASQ4131 ✈ 11-May-2012 ✈ KIAH - KBHM

Flight Track Log - Related Links

Times and Time Zones

All times are in EDT time to prevent confusion due to time zone crossing. See the ASQ4131 flight status page for this flight to view local times or setup timezone preferences in your user account.

Time Position Orientation Groundspeed Altitude Reporting Facility
EDT Latitude Longitude Course Direction KTS MPH feet Rate Location/Type
05:14PM 29.9625 -95.3411 105° East 152 175 900  Level Houston Center
05:15PM 29.9550 -95.3094 101° East 191 220 1,900 1,500 Climbing Houston Center
05:16PM 29.9442 -95.2469 99° East 246 283 3,100 1,140 Climbing Houston Center
05:17PM 29.9336 -95.1697 87° East 237 273 4,000 1,200 Climbing Houston Center
05:18PM 29.9375 -95.0956 93° East 271 312 5,600 1,680 Climbing Houston Center
05:19PM 29.9333 -95.0117 87° East 271 312 7,400 1,920 Climbing Houston Center
05:20PM 29.9378 -94.9161 82° East 276 318 9,500 1,620 Climbing Houston Center
05:21PM 29.9506 -94.8133 82° East 299 344 10,700 1,500 Climbing Houston Center
05:22PM 29.9636 -94.6986 85° East 334 384 12,500 1,800 Climbing Houston Center
05:23PM 29.9725 -94.5861 84° East 350 403 14,400 1,620 Climbing Houston Center
05:24PM 29.9833 -94.4594 84° East 355 409 15,800 1,500 Climbing Houston Center
05:25PM 29.9942 -94.3400 83° East 362 417 17,400 1,260 Climbing Houston Center
05:26PM 30.0069 -94.2178 82° East 374 430 18,400 960 Climbing Houston Center
05:27PM 30.0219 -94.0911 82° East 380 437 19,400 960 Climbing Houston Center
05:28PM 30.0389 -93.9547 82° East 398 458 20,400 960 Climbing Houston Center
05:29PM 30.0558 -93.8183 83° East 416 479 21,400 960 Climbing Houston Center
05:30PM 30.0703 -93.6772 81° East 429 494 22,400 960 Climbing Houston Center
05:31PM 30.0892 -93.5358 82° East 434 499 23,400 900 Climbing Houston Center
05:32PM 30.1056 -93.3944 82° East 444 511 24,300 900 Climbing Houston Center
05:33PM 30.1219 -93.2531 81° East 444 511 25,300 960 Climbing Houston Center
05:34PM 30.1403 -93.1214 61° Northeast 449 517 26,300 840 Climbing Houston Center
05:35PM 30.2019 -92.9947 58° Northeast 436 502 27,000 600 Climbing Houston Center
05:36PM 30.2700 -92.8683 57° Northeast 441 507 27,500 540 Climbing Houston Center
05:37PM 30.3419 -92.7417 58° Northeast 462 532 28,100 540 Climbing Houston Center
05:38PM 30.4119 -92.6122 59° Northeast 473 544 28,600 660 Climbing Houston Center
05:39PM 30.4881 -92.4658 58° Northeast 473 544 29,500 840 Climbing Houston Center
05:40PM 30.5556 -92.3386 58° Northeast 473 544 30,300 720 Climbing Houston Center
05:41PM 30.6250 -92.2089 58° Northeast 473 544 31,000 300 Climbing Houston Center
05:42PM 30.6983 -92.0739 58° Northeast 480 552 31,000  Level Houston Center
05:43PM 30.7719 -91.9367 58° Northeast 487 560 31,000  Level Houston Center
05:44PM 30.8450 -91.7989 58° Northeast 492 566 31,000  Level Houston Center
05:45PM 30.9203 -91.6561 58° Northeast 492 566 31,000  Level Houston Center
05:46PM 30.9953 -91.5181 58° Northeast 497 572 31,000 -60 Level Houston Center
05:47PM 31.0703 -91.3800 58° Northeast 497 572 30,900  Descending Houston Center
05:48PM 31.1431 -91.2414 59° Northeast 497 572 31,000  Climbing Houston Center
05:49PM 31.2072 -91.1150 58° Northeast 478 550 31,000  Level Houston Center
05:50PM 31.2794 -90.9808 60° Northeast 478 550 31,000  Level Houston Center
05:51PM 31.3456 -90.8469 58° Northeast 478 550 31,000  Level Houston Center
05:52PM 31.4525 -90.6422 59° Northeast 489 563 31,000  Level Memphis Center
05:53PM 31.5194 -90.5133 58° Northeast 475 547 31,000  Level Memphis Center
05:54PM 31.5883 -90.3817 59° Northeast 470 541 31,000  Level Memphis Center
05:55PM 31.6594 -90.2428 58° Northeast 470 541 31,000  Level Memphis Center
05:56PM 31.7300 -90.1083 60° Northeast 481 554 31,000  Level Memphis Center
05:57PM 31.8008 -89.9664 60° Northeast 488 562 31,000  Level Memphis Center
05:58PM 31.8711 -89.8217 58° Northeast 499 574 31,000  Level Memphis Center
05:59PM 31.9456 -89.6792 59° Northeast 499 574 31,000  Level Memphis Center
06:00PM 32.0178 -89.5367 60° Northeast 499 574 31,000  Level Memphis Center
06:01PM 32.0900 -89.3911 60° Northeast 504 580 31,000 -900 Level Memphis Center
06:02PM 32.1575 -89.2506 58° Northeast 504 580 29,200 -1,860 Descending Memphis Center
06:03PM 32.2231 -89.1244 60° Northeast 504 580 27,300 -1,920 Descending Memphis Center
06:04PM 32.2886 -88.9886 60° Northeast 492 566 25,400 -1,680 Descending Memphis Center
06:05PM 32.3539 -88.8547 52° Northeast 480 552 24,000 -840 Descending Memphis Center
06:06PM 32.4297 -88.7378 51° Northeast 455 524 23,800 -960 Descending Memphis Center
06:07PM 32.5033 -88.6281 51° Northeast 441 507 22,100 -1,440 Descending Memphis Center
06:08PM 32.5789 -88.5181 52° Northeast 431 496 21,000 -600 Descending Memphis Center
06:09PM 32.6525 -88.4081 50° Northeast 426 490 21,000  Level Memphis Center
06:10PM 32.7319 -88.2953 52° Northeast 432 497 21,000 -60 Level Memphis Center
06:12PM 32.8700 -88.0872 50° Northeast 462 532 20,900 -540 Descending Atlanta Center
06:13PM 32.9464 -87.9794 51° Northeast 441 507 19,600 -1,380 Descending Atlanta Center
06:14PM 33.0122 -87.8808 50° Northeast 431 496 18,200 -1,500 Descending Atlanta Center
06:15PM 33.0886 -87.7703 53° Northeast 426 490 16,700 -1,560 Descending Atlanta Center
06:16PM 33.1564 -87.6639 48° Northeast 420 483 15,100 -1,740 Descending Atlanta Center
06:17PM 33.2108 -87.5917 53° Northeast 379 436 13,700 -1,860 Descending Atlanta Center
06:18PM 33.2786 -87.4853 63° Northeast 345 397 11,700 -1,500 Descending Atlanta Center
06:19PM 33.3164 -87.3972 72° East 293 337 10,600 -1,500 Descending Atlanta Center
06:20PM 33.3397 -87.3111 74° East 277 319 8,700 -1,560 Descending Atlanta Center
06:21PM 33.3608 -87.2222 73° East 235 270 7,300 -1,140 Descending Atlanta Center
06:22PM 33.3769 -87.1608 74° East 225 259 6,400 -1,140 Descending Atlanta Center
06:23PM 33.3978 -87.0744 71° East 230 265 5,100 -1,080 Descending Atlanta Center
06:24PM 33.4139 -87.0178 66° East 235 270 4,400 -1,080 Descending Atlanta Center
06:25PM 33.4406 -86.9464 44° Northeast 227 261 3,100 -1,200 Descending Atlanta Center
06:26PM 33.4900 -86.8883 59° Northeast 251 289 2,000 -720 Descending Atlanta Center
06:27PM 33.5142 -86.8392 55° Northeast 219 252 1,900 -600 Descending Atlanta Center
06:28PM 33.5489 -86.7806 55° Northeast 141 162 800 -780 Descending Atlanta Center